Terminal Aerodrome Forecast
Issued by NWS Louisville, KY

Home | Current Version | Previous Version | Text Only | Print | Product List | Glossary On
Versions: 1 2 3 4 5 6 7 8 9 10 11 12 13 14 15 16 17 18 19 20
000
FTUS43 KLMK 272300
TAFSDF
TAF
KSDF 272326Z 2800/2906 35005KT P6SM SCT035 BKN050
     FM280300 VRB04KT P6SM SCT250
     FM281700 12005KT P6SM SCT250=

USA.gov is the U.S. government's official web portal to all federal, state and local government web resources and services.